Terminal Aerodrome Forecast
Issued by NWS Sterling, VA

Current Version | Previous Version | Graphics & Text | Print | Product List | Glossary On
Versions: 1 2 3 4 5 6 7 8 9 10 11 12 13 14 15 16 17 18 19 20 21 22 23 24
000
FTUS41 KLWX 032320
TAFMRB
TAF
KMRB 032320Z 0400/0424 15005KT P6SM VCSH OVC050
     FM040400 VRB03KT 3SM SHRA BKN015 OVC025
     FM040900 07004KT 2SM -SHRA BR BKN008 OVC015
     FM041400 02005KT 5SM -SHRA BKN015 OVC025
     FM041800 VRB03KT 5SM -SHRA BKN025 BKN050
     FM042200 01004KT P6SM BKN050=

USA.gov is the U.S. government's official web portal to all federal, state and local government web resources and services.